createdAt,value
2019-03-10T00:00:10.536Z,4.23
2019-03-10T00:02:39.580Z,4.70
2019-03-10T00:05:08.694Z,3.90
2019-03-10T00:07:37.806Z,4.23
2019-03-10T00:10:08.120Z,3.57
2019-03-10T00:12:37.142Z,4.17
2019-03-10T00:15:06.294Z,4.40
2019-03-10T00:17:39.176Z,5.00
2019-03-10T00:20:08.335Z,4.80
2019-03-10T00:22:40.060Z,5.37
2019-03-10T00:25:09.208Z,4.33
2019-03-10T00:27:39.679Z,4.50
2019-03-10T00:30:08.808Z,5.33
2019-03-10T00:32:37.955Z,5.13
2019-03-10T00:35:07.145Z,5.23
2019-03-10T00:37:36.261Z,5.07
2019-03-10T00:40:51.315Z,5.37
2019-03-10T00:43:58.512Z,5.67
2019-03-10T00:47:22.846Z,5.03
2019-03-10T00:50:47.360Z,5.33
2019-03-10T00:53:18.484Z,6.80
2019-03-10T00:55:47.586Z,7.00
2019-03-10T00:58:18.182Z,6.80
2019-03-10T01:00:47.315Z,7.00
2019-03-10T01:03:16.470Z,7.17
2019-03-10T01:05:45.648Z,7.93
2019-03-10T01:08:16.623Z,6.53
2019-03-10T01:10:45.754Z,6.93
2019-03-10T01:13:14.874Z,6.67
2019-03-10T01:15:44.020Z,6.77
2019-03-10T01:18:13.158Z,6.50
2019-03-10T01:20:42.209Z,6.47
2019-03-10T01:23:11.390Z,5.73
2019-03-10T01:25:40.414Z,6.80
2019-03-10T01:28:09.580Z,5.57
2019-03-10T01:30:44.016Z,6.30
2019-03-10T01:33:37.812Z,5.37
2019-03-10T01:36:14.716Z,5.73
2019-03-10T01:38:44.072Z,5.97
2019-03-10T01:41:13.276Z,5.63
2019-03-10T01:43:42.340Z,6.20
2019-03-10T01:46:11.430Z,5.13
2019-03-10T01:48:40.573Z,5.80
2019-03-10T01:51:09.723Z,4.30
2019-03-10T01:53:38.782Z,4.47
2019-03-10T01:56:07.852Z,4.03
2019-03-10T01:58:36.932Z,3.53
2019-03-10T02:01:06.007Z,3.17
2019-03-10T02:03:36.188Z,3.07
2019-03-10T02:06:05.260Z,3.50
2019-03-10T02:08:34.440Z,3.07
2019-03-10T02:11:03.545Z,3.00
2019-03-10T02:13:32.675Z,3.63
2019-03-10T02:16:01.742Z,3.10
2019-03-10T02:18:30.836Z,2.73
2019-03-10T02:21:02.249Z,2.87
2019-03-10T02:23:31.324Z,3.40
2019-03-10T02:26:00.433Z,3.10
2019-03-10T02:28:29.535Z,3.40
2019-03-10T02:30:58.667Z,3.23
2019-03-10T02:33:27.848Z,3.30
2019-03-10T02:35:56.977Z,3.37
2019-03-10T02:38:26.103Z,2.90
2019-03-10T02:40:55.154Z,2.70
2019-03-10T02:43:24.261Z,3.07
2019-03-10T02:45:53.372Z,3.20
2019-03-10T02:48:22.432Z,3.27
2019-03-10T02:50:51.506Z,2.93
2019-03-10T02:53:20.643Z,2.80
2019-03-10T02:55:49.745Z,3.53
2019-03-10T02:58:19.850Z,3.43
2019-03-10T03:00:52.536Z,3.10
2019-03-10T03:03:21.592Z,2.80
2019-03-10T03:05:51.398Z,3.30
2019-03-10T03:08:20.428Z,3.33
2019-03-10T03:10:51.284Z,3.30
2019-03-10T03:13:20.410Z,3.43
2019-03-10T03:15:49.424Z,3.37
2019-03-10T03:18:18.468Z,3.33
2019-03-10T03:20:47.476Z,3.33
2019-03-10T03:23:16.566Z,3.13
2019-03-10T03:25:45.665Z,3.03
2019-03-10T03:28:14.773Z,3.60
2019-03-10T03:30:43.843Z,4.00
2019-03-10T03:33:12.967Z,3.83
2019-03-10T03:35:56.302Z,3.87
2019-03-10T03:38:32.011Z,3.90
2019-03-10T03:41:03.671Z,4.13
2019-03-10T03:43:32.728Z,4.03
2019-03-10T03:46:03.188Z,4.00
2019-03-10T03:48:32.278Z,4.27
2019-03-10T03:51:01.317Z,4.23
2019-03-10T03:53:30.406Z,4.80
2019-03-10T03:55:59.477Z,4.30
2019-03-10T03:58:28.543Z,3.47
2019-03-10T04:01:02.420Z,3.03
2019-03-10T04:03:32.678Z,2.80
2019-03-10T04:06:02.801Z,2.23
2019-03-10T04:08:31.874Z,2.10
2019-03-10T04:11:01.013Z,1.80
2019-03-10T04:13:30.044Z,1.80
2019-03-10T04:15:59.159Z,1.63
2019-03-10T04:18:28.189Z,1.60
2019-03-10T04:21:00.725Z,1.57
2019-03-10T04:23:31.859Z,1.40
2019-03-10T04:26:00.945Z,1.40
2019-03-10T04:28:30.025Z,1.60
2019-03-10T04:31:00.308Z,1.47
2019-03-10T04:33:29.333Z,1.43
2019-03-10T04:35:58.471Z,1.40
2019-03-10T04:38:27.547Z,1.17
2019-03-10T04:40:56.667Z,1.10
2019-03-10T04:43:25.782Z,1.07
2019-03-10T04:45:54.854Z,1.00
2019-03-10T04:48:23.874Z,1.20
2019-03-10T04:50:52.978Z,0.90
2019-03-10T04:53:22.068Z,0.90
2019-03-10T04:55:59.298Z,0.80
2019-03-10T04:58:30.025Z,0.70
2019-03-10T05:00:59.452Z,0.70
2019-03-10T05:03:28.523Z,0.90
2019-03-10T05:05:57.579Z,0.80
2019-03-10T05:08:26.625Z,0.70
2019-03-10T05:10:55.730Z,0.83
2019-03-10T05:13:24.766Z,0.90
2019-03-10T05:15:53.870Z,1.00
2019-03-10T05:18:22.890Z,0.77
2019-03-10T05:20:51.937Z,0.70
2019-03-10T05:23:49.484Z,1.00
2019-03-10T05:26:18.566Z,0.80
2019-03-10T05:28:49.614Z,0.73
2019-03-10T05:31:18.721Z,0.77
2019-03-10T05:33:47.792Z,0.90
2019-03-10T05:36:16.897Z,0.80
2019-03-10T05:38:47.509Z,0.80
2019-03-10T05:41:22.244Z,0.87
2019-03-10T05:43:51.267Z,0.63
2019-03-10T05:46:20.326Z,0.80
2019-03-10T05:48:49.357Z,0.53
2019-03-10T05:51:18.411Z,0.70
2019-03-10T05:53:47.466Z,1.43
2019-03-10T05:56:17.539Z,0.97
2019-03-10T05:58:46.568Z,0.70
2019-03-10T06:01:15.651Z,0.90
2019-03-10T06:03:46.245Z,0.83
2019-03-10T06:06:15.342Z,0.80
2019-03-10T06:08:46.745Z,1.00
2019-03-10T06:11:18.107Z,0.90
2019-03-10T06:13:47.123Z,0.90
2019-03-10T06:16:16.247Z,0.80
2019-03-10T06:18:50.323Z,0.80
2019-03-10T06:21:20.605Z,0.87
2019-03-10T06:23:49.673Z,1.03
2019-03-10T06:26:18.785Z,1.10
2019-03-10T06:28:50.823Z,0.87
2019-03-10T06:31:19.872Z,0.90
2019-03-10T06:33:49.054Z,0.97
2019-03-10T06:36:18.192Z,0.97
2019-03-10T06:38:47.304Z,0.80
2019-03-10T06:41:17.634Z,0.90
2019-03-10T06:43:46.652Z,0.90
2019-03-10T06:46:15.791Z,0.60
2019-03-10T06:48:44.864Z,0.60
2019-03-10T06:51:13.910Z,0.50
2019-03-10T06:53:42.970Z,0.60
2019-03-10T06:56:12.042Z,0.50
2019-03-10T06:58:41.166Z,0.60
2019-03-10T07:01:10.217Z,0.40
2019-03-10T07:03:39.290Z,0.40
2019-03-10T07:06:08.368Z,0.50
2019-03-10T07:08:37.446Z,0.50
2019-03-10T07:11:06.480Z,0.43
2019-03-10T07:13:39.466Z,0.50
2019-03-10T07:16:07.912Z,0.60
2019-03-10T07:18:39.248Z,0.50
2019-03-10T07:21:08.309Z,0.50
2019-03-10T07:23:37.389Z,0.57
2019-03-10T07:26:07.006Z,0.50
2019-03-10T07:28:51.728Z,0.77
2019-03-10T07:31:48.522Z,0.60
2019-03-10T07:34:35.555Z,0.60
2019-03-10T07:37:22.282Z,0.40
2019-03-10T07:40:13.404Z,0.80
2019-03-10T07:42:54.627Z,0.77
2019-03-10T07:45:33.946Z,0.80
2019-03-10T07:48:31.246Z,0.60
2019-03-10T07:51:18.420Z,0.50
2019-03-10T07:54:09.490Z,0.60
2019-03-10T07:57:03.830Z,0.70
2019-03-10T07:59:44.123Z,0.70
2019-03-10T08:02:38.377Z,0.73
2019-03-10T08:05:34.623Z,0.50
2019-03-10T08:08:25.752Z,0.50
2019-03-10T08:11:22.551Z,0.60
2019-03-10T08:14:01.702Z,0.50
2019-03-10T08:16:48.438Z,0.53
2019-03-10T08:19:39.304Z,0.50
2019-03-10T08:22:30.111Z,0.57
2019-03-10T08:25:07.526Z,0.40
2019-03-10T08:28:04.503Z,0.50
2019-03-10T08:31:01.867Z,0.40
2019-03-10T08:33:55.711Z,0.30
2019-03-10T08:36:36.684Z,0.30
2019-03-10T08:39:13.562Z,0.40
2019-03-10T08:42:04.331Z,0.40
2019-03-10T08:44:52.415Z,0.60
2019-03-10T08:47:27.842Z,0.63
2019-03-10T08:50:04.619Z,0.70
2019-03-10T08:52:52.164Z,0.70
2019-03-10T08:55:36.216Z,0.60
2019-03-10T08:58:14.764Z,0.60
2019-03-10T09:01:01.592Z,0.50
2019-03-10T09:03:55.488Z,0.70
2019-03-10T09:06:36.372Z,0.40
2019-03-10T09:09:24.569Z,0.40
2019-03-10T09:12:18.618Z,0.50
2019-03-10T09:15:04.074Z,0.60
2019-03-10T09:17:50.604Z,0.40
2019-03-10T09:20:35.753Z,0.30
2019-03-10T09:23:22.572Z,0.40
2019-03-10T09:26:18.928Z,0.30
2019-03-10T09:29:15.591Z,0.43
2019-03-10T09:32:07.363Z,0.60
2019-03-10T09:35:10.755Z,0.50
2019-03-10T09:37:50.587Z,0.40
2019-03-10T09:40:41.167Z,0.70
2019-03-10T09:43:28.004Z,0.50
2019-03-10T09:46:04.839Z,0.40
2019-03-10T09:48:52.819Z,0.30
2019-03-10T09:51:31.054Z,0.53
2019-03-10T09:54:27.967Z,0.40
2019-03-10T09:57:19.947Z,0.40
2019-03-10T09:59:57.180Z,0.70
2019-03-10T10:02:38.998Z,0.50
2019-03-10T10:05:17.187Z,0.43
2019-03-10T10:08:02.854Z,0.60
2019-03-10T10:10:40.529Z,0.40
2019-03-10T10:13:18.879Z,0.40
2019-03-10T10:16:06.944Z,0.50
2019-03-10T10:18:50.401Z,0.50
2019-03-10T10:21:39.138Z,0.60
2019-03-10T10:24:42.407Z,0.70
2019-03-10T10:27:22.176Z,0.50
2019-03-10T10:30:05.739Z,0.60
2019-03-10T10:32:53.526Z,0.50
2019-03-10T10:35:39.922Z,0.50
2019-03-10T10:38:40.133Z,0.40
2019-03-10T10:41:26.835Z,0.40
2019-03-10T10:44:17.866Z,0.50
2019-03-10T10:46:56.610Z,0.70
2019-03-10T10:49:35.491Z,0.60
2019-03-10T10:52:36.078Z,0.60
2019-03-10T10:55:17.844Z,0.60
2019-03-10T10:58:05.866Z,0.67
2019-03-10T11:00:54.574Z,0.40
2019-03-10T11:03:41.585Z,0.57
2019-03-10T11:06:28.434Z,0.60
2019-03-10T11:09:16.434Z,0.60
2019-03-10T11:12:03.085Z,0.60
2019-03-10T11:14:49.679Z,0.60
2019-03-10T11:17:33.017Z,0.60
2019-03-10T11:20:23.789Z,0.70
2019-03-10T11:22:59.848Z,0.60
2019-03-10T11:25:41.533Z,0.60
2019-03-10T11:28:32.386Z,0.50
2019-03-10T11:31:07.640Z,0.50
2019-03-10T11:34:02.742Z,0.67
2019-03-10T11:36:56.661Z,0.47
2019-03-10T11:39:46.240Z,0.70
2019-03-10T11:42:36.556Z,0.67
2019-03-10T11:45:18.911Z,1.60
2019-03-10T11:48:18.738Z,0.90
2019-03-10T11:51:09.774Z,1.17
2019-03-10T11:53:51.913Z,0.70
2019-03-10T11:56:49.054Z,0.60
2019-03-10T11:59:30.985Z,0.70
2019-03-10T12:02:19.008Z,1.13
2019-03-10T12:05:19.457Z,0.60
2019-03-10T12:08:18.818Z,0.63
2019-03-10T12:10:49.672Z,0.87
2019-03-10T12:13:19.799Z,0.63
2019-03-10T12:15:48.895Z,1.50
2019-03-10T12:18:18.201Z,1.10
2019-03-10T12:20:47.493Z,0.70
2019-03-10T12:23:17.111Z,0.73
2019-03-10T12:25:46.291Z,0.80
2019-03-10T12:28:16.690Z,0.93
2019-03-10T12:30:48.321Z,0.90
2019-03-10T12:33:18.588Z,0.83
2019-03-10T12:35:52.831Z,0.80
2019-03-10T12:38:22.639Z,1.00
2019-03-10T12:40:54.389Z,1.43
2019-03-10T12:43:23.711Z,0.93
2019-03-10T12:45:54.538Z,1.00
2019-03-10T12:48:23.989Z,1.17
2019-03-10T12:50:55.337Z,1.07
2019-03-10T12:53:24.597Z,1.43
2019-03-10T12:55:53.964Z,1.20
2019-03-10T12:58:23.536Z,1.30
2019-03-10T13:00:53.140Z,1.90
2019-03-10T13:03:27.765Z,1.33
2019-03-10T13:05:57.353Z,1.70
2019-03-10T13:08:26.797Z,2.13
2019-03-10T13:10:58.428Z,1.40
2019-03-10T13:13:30.234Z,1.77
2019-03-10T13:16:01.822Z,1.30
2019-03-10T13:18:30.961Z,2.07
2019-03-10T13:21:01.555Z,2.23
2019-03-10T13:23:32.346Z,2.03
2019-03-10T13:26:01.973Z,1.83
2019-03-10T13:28:31.863Z,1.97
2019-03-10T13:31:01.116Z,2.17
2019-03-10T13:33:30.283Z,1.93
2019-03-10T13:35:59.402Z,1.93
2019-03-10T13:38:30.749Z,1.70
2019-03-10T13:41:22.164Z,2.10
2019-03-10T13:43:51.188Z,2.63
2019-03-10T13:46:22.924Z,1.80
2019-03-10T13:48:55.067Z,1.87
2019-03-10T13:51:25.598Z,2.03
2019-03-10T13:53:58.233Z,2.03
2019-03-10T13:56:27.520Z,1.50
2019-03-10T13:58:57.231Z,1.50
2019-03-10T14:01:28.143Z,1.70
2019-03-10T14:03:57.265Z,1.60
2019-03-10T14:06:26.466Z,1.80
2019-03-10T14:08:55.577Z,1.60
2019-03-10T14:11:24.692Z,1.67
2019-03-10T14:13:53.789Z,2.27
2019-03-10T14:16:22.904Z,1.40
2019-03-10T14:18:51.971Z,1.60
2019-03-10T14:21:21.439Z,1.63
2019-03-10T14:23:50.539Z,1.60
2019-03-10T14:26:22.075Z,2.00
2019-03-10T14:28:51.119Z,1.30
2019-03-10T14:31:20.208Z,1.50
2019-03-10T14:33:51.607Z,1.43
2019-03-10T14:36:20.764Z,1.10
2019-03-10T14:38:49.845Z,1.20
2019-03-10T14:41:19.001Z,1.50
2019-03-10T14:43:48.077Z,1.90
2019-03-10T14:46:20.771Z,1.77
2019-03-10T14:48:49.830Z,1.30
2019-03-10T14:51:18.988Z,1.43
2019-03-10T14:53:48.106Z,1.60
2019-03-10T14:56:17.290Z,1.70
2019-03-10T14:58:46.378Z,1.63
2019-03-10T15:01:17.578Z,1.43
2019-03-10T15:03:46.651Z,1.67
2019-03-10T15:06:15.824Z,1.80
2019-03-10T15:08:48.293Z,1.40
2019-03-10T15:11:17.500Z,1.97
2019-03-10T15:13:46.572Z,1.73
2019-03-10T15:16:18.388Z,1.77
2019-03-10T15:18:53.313Z,1.50
2019-03-10T15:21:31.047Z,1.80
2019-03-10T15:24:00.443Z,1.50
2019-03-10T15:26:29.977Z,1.50
2019-03-10T15:29:03.095Z,1.67
2019-03-10T15:31:38.618Z,1.47
2019-03-10T15:34:12.933Z,1.60
2019-03-10T15:36:46.304Z,1.00
2019-03-10T15:39:19.624Z,1.73
2019-03-10T15:41:48.759Z,1.43
2019-03-10T15:44:17.888Z,1.30
2019-03-10T15:46:48.631Z,1.40
2019-03-10T15:49:19.272Z,0.97
2019-03-10T15:51:48.665Z,1.30
2019-03-10T15:54:18.372Z,1.20
2019-03-10T15:56:49.259Z,1.23
2019-03-10T15:59:20.708Z,1.20
2019-03-10T16:01:50.591Z,1.43
2019-03-10T16:04:23.740Z,1.10
2019-03-10T16:06:52.823Z,1.07
2019-03-10T16:09:22.596Z,1.47
2019-03-10T16:11:51.740Z,1.40
2019-03-10T16:14:20.884Z,1.07
2019-03-10T16:16:50.026Z,1.83
2019-03-10T16:19:19.086Z,1.50
2019-03-10T16:21:48.240Z,0.90
2019-03-10T16:24:17.302Z,1.33
2019-03-10T16:26:46.355Z,1.20
2019-03-10T16:29:15.409Z,1.43
2019-03-10T16:31:44.899Z,1.10
2019-03-10T16:34:15.728Z,1.13
2019-03-10T16:36:45.815Z,1.40
2019-03-10T16:39:14.933Z,1.43
2019-03-10T16:41:44.038Z,1.33
2019-03-10T16:44:15.418Z,0.90
2019-03-10T16:46:44.509Z,1.00
2019-03-10T16:49:13.649Z,0.90
2019-03-10T16:51:45.030Z,1.13
2019-03-10T16:54:14.069Z,1.60
2019-03-10T16:56:43.212Z,1.13
2019-03-10T16:59:12.337Z,1.20
2019-03-10T17:01:41.396Z,1.20
2019-03-10T17:04:10.529Z,1.40
2019-03-10T17:06:39.683Z,1.27
2019-03-10T17:09:20.907Z,1.10
2019-03-10T17:11:49.950Z,1.00
2019-03-10T17:14:18.993Z,0.87
2019-03-10T17:16:48.217Z,0.97
2019-03-10T17:19:18.465Z,1.00
2019-03-10T17:21:47.516Z,1.00
2019-03-10T17:24:19.223Z,0.90
2019-03-10T17:26:50.291Z,1.17
2019-03-10T17:29:20.700Z,1.80
2019-03-10T17:31:49.857Z,1.20
2019-03-10T17:34:18.931Z,1.07
2019-03-10T17:36:48.002Z,1.33
2019-03-10T17:39:17.112Z,1.57
2019-03-10T17:41:46.308Z,1.30
2019-03-10T17:44:15.445Z,1.93
2019-03-10T17:46:46.824Z,2.13
2019-03-10T17:49:15.998Z,6.40
2019-03-10T17:51:45.033Z,2.83
2019-03-10T17:54:16.184Z,6.90
2019-03-10T17:56:46.984Z,9.07
2019-03-10T17:59:17.398Z,2.23
2019-03-10T18:01:47.481Z,1.10
2019-03-10T18:04:16.631Z,1.80
2019-03-10T18:06:45.692Z,1.40
2019-03-10T18:09:16.960Z,1.73
2019-03-10T18:11:46.031Z,1.70
2019-03-10T18:14:15.258Z,1.33
2019-03-10T18:16:44.340Z,1.00
2019-03-10T18:19:13.434Z,1.10
2019-03-10T18:21:42.495Z,1.10
2019-03-10T18:24:13.131Z,1.60
2019-03-10T18:26:42.196Z,1.10
2019-03-10T18:29:13.558Z,1.07
2019-03-10T18:31:42.589Z,1.40
2019-03-10T18:34:11.783Z,1.20
2019-03-10T18:36:40.884Z,1.20
2019-03-10T18:39:09.990Z,1.20
2019-03-10T18:41:39.036Z,1.10
2019-03-10T18:44:08.126Z,1.20
2019-03-10T18:46:37.274Z,1.80
2019-03-10T18:49:06.349Z,1.23
2019-03-10T18:51:35.421Z,1.83
2019-03-10T18:54:04.470Z,1.47
2019-03-10T18:56:33.545Z,1.60
2019-03-10T18:59:02.648Z,1.20
2019-03-10T19:01:31.684Z,2.70
2019-03-10T19:04:02.603Z,2.50
2019-03-10T19:06:31.717Z,2.20
2019-03-10T19:09:00.884Z,1.50
2019-03-10T19:11:29.982Z,1.70
2019-03-10T19:13:59.056Z,1.53
2019-03-10T19:16:28.193Z,2.00
2019-03-10T19:18:58.861Z,1.50
2019-03-10T19:21:29.771Z,1.60
2019-03-10T19:23:58.874Z,1.67
2019-03-10T19:26:28.010Z,1.60
2019-03-10T19:28:57.086Z,1.43
2019-03-10T19:31:26.209Z,3.27
2019-03-10T19:33:55.317Z,2.03
2019-03-10T19:36:24.458Z,1.60
2019-03-10T19:38:53.541Z,1.50
2019-03-10T19:41:22.637Z,1.57
2019-03-10T19:43:51.747Z,1.60
2019-03-10T19:46:20.864Z,1.50
2019-03-10T19:48:50.000Z,2.20
2019-03-10T19:51:19.086Z,2.37
2019-03-10T19:53:50.473Z,1.83
2019-03-10T19:56:19.660Z,1.83
2019-03-10T19:58:48.799Z,1.50
2019-03-10T20:01:17.851Z,2.47
2019-03-10T20:03:47.023Z,1.67
2019-03-10T20:06:16.123Z,1.83
2019-03-10T20:08:45.417Z,2.20
2019-03-10T20:11:14.573Z,1.87
2019-03-10T20:13:43.598Z,1.90
2019-03-10T20:16:15.049Z,1.77
2019-03-10T20:18:44.138Z,2.30
2019-03-10T20:21:13.260Z,2.37
2019-03-10T20:23:43.473Z,1.90
2019-03-10T20:26:12.665Z,1.97
2019-03-10T20:28:41.705Z,2.50
2019-03-10T20:31:10.835Z,2.10
2019-03-10T20:33:40.016Z,2.60
2019-03-10T20:36:09.166Z,2.10
2019-03-10T20:38:38.287Z,2.40
2019-03-10T20:41:07.450Z,2.00
2019-03-10T20:43:38.554Z,2.20
2019-03-10T20:46:07.691Z,2.13
2019-03-10T20:48:36.822Z,2.30
2019-03-10T20:51:07.776Z,2.13
2019-03-10T20:53:36.832Z,2.70
2019-03-10T20:56:08.005Z,2.20
2019-03-10T20:58:38.470Z,1.97
2019-03-10T21:01:08.800Z,2.00
2019-03-10T21:03:37.911Z,1.77
2019-03-10T21:06:07.069Z,2.20
2019-03-10T21:08:41.971Z,2.20
2019-03-10T21:11:12.517Z,1.90
2019-03-10T21:13:41.763Z,2.23
2019-03-10T21:16:10.930Z,1.50
2019-03-10T21:18:41.376Z,1.83
2019-03-10T21:21:10.451Z,1.60
2019-03-10T21:23:40.656Z,2.07
2019-03-10T21:26:09.710Z,3.23
2019-03-10T21:28:38.821Z,2.27
2019-03-10T21:31:07.911Z,2.23
2019-03-10T21:33:37.065Z,2.03
2019-03-10T21:36:06.148Z,1.97
2019-03-10T21:38:35.233Z,2.00
2019-03-10T21:41:13.619Z,2.00
2019-03-10T21:43:35.214Z,1.90
2019-03-10T21:46:04.282Z,2.00
2019-03-10T21:48:33.441Z,2.50
2019-03-10T21:51:02.543Z,2.87
2019-03-10T21:53:34.057Z,2.33
2019-03-10T21:56:03.217Z,2.20
2019-03-10T21:58:32.441Z,2.37
2019-03-10T22:01:01.952Z,1.90
2019-03-10T22:03:31.123Z,2.37
2019-03-10T22:06:00.219Z,1.70
2019-03-10T22:08:29.358Z,2.60
2019-03-10T22:10:58.375Z,3.33
2019-03-10T22:13:27.555Z,2.30
2019-03-10T22:15:56.671Z,2.70
2019-03-10T22:18:26.056Z,2.27
2019-03-10T22:20:55.155Z,1.90
2019-03-10T22:23:24.271Z,2.03
2019-03-10T22:25:53.388Z,2.30
2019-03-10T22:28:22.478Z,2.20
2019-03-10T22:30:51.581Z,3.00
2019-03-10T22:33:20.718Z,1.90
2019-03-10T22:35:49.775Z,2.23
2019-03-10T22:38:20.923Z,2.37
2019-03-10T22:40:52.109Z,2.00
2019-03-10T22:43:21.225Z,2.00
2019-03-10T22:45:50.380Z,1.87
2019-03-10T22:48:19.533Z,2.03
2019-03-10T22:50:49.292Z,2.23
2019-03-10T22:53:19.444Z,2.10
2019-03-10T22:55:48.569Z,1.97
2019-03-10T22:58:17.763Z,1.87
2019-03-10T23:00:54.400Z,2.50
2019-03-10T23:03:23.597Z,2.07
2019-03-10T23:05:52.845Z,1.43
2019-03-10T23:08:24.307Z,1.73
2019-03-10T23:10:53.962Z,2.10
2019-03-10T23:13:24.639Z,2.37
2019-03-10T23:15:55.253Z,1.83
2019-03-10T23:18:24.341Z,2.13
2019-03-10T23:20:53.403Z,2.53
2019-03-10T23:23:23.627Z,2.33
2019-03-10T23:25:55.019Z,2.17
2019-03-10T23:28:26.645Z,2.20
2019-03-10T23:30:55.682Z,2.47
2019-03-10T23:33:26.426Z,2.03
2019-03-10T23:35:56.986Z,2.43
2019-03-10T23:38:26.077Z,2.03
2019-03-10T23:40:55.096Z,2.93
2019-03-10T23:43:24.182Z,3.03
2019-03-10T23:45:53.235Z,3.13
2019-03-10T23:48:22.349Z,3.17
2019-03-10T23:50:52.445Z,2.13
2019-03-10T23:53:23.851Z,2.53
2019-03-10T23:55:53.169Z,2.47
2019-03-10T23:58:26.628Z,2.43
